Time;durP1;ratioP1;P1;durP2;ratioP2;P2;SDS_P1;SDS_P2;PMS_P1;PMS_P2;Temp;Humidity;BMP_temperature;BMP_pressure;BME280_temperature;BME280_humidity;BME280_pressure;Samples;Min_cycle;Max_cycle;Signal;HPM_P1;HPM_P2
2022/03/01 00:01:09;;;;;;;;;;;16.00;31.80;;;;;;8332608;28;19913;-53
2022/03/01 00:05:10;;;;;;;;;;;16.00;31.80;;;;;;8332131;28;20329;-49
2022/03/01 00:09:10;;;;;;;;;;;15.90;31.70;;;;;;8332317;28;20003;-50
2022/03/01 00:13:11;;;;;;;;;;;16.00;31.70;;;;;;8331634;28;19925;-49
2022/03/01 00:17:11;;;;;;;;;;;16.00;31.70;;;;;;8331595;28;19928;-51
2022/03/01 00:21:12;;;;;;;;;;;16.00;31.70;;;;;;8332065;28;19928;-49
2022/03/01 00:25:12;;;;;;;;;;;16.00;31.70;;;;;;8332028;28;19996;-52
2022/03/01 00:29:13;;;;;;;;;;;16.00;31.70;;;;;;8331126;28;19924;-48
2022/03/01 00:33:13;;;;;;;;;;;16.00;31.70;;;;;;8331787;28;19925;-50
2022/03/01 00:37:13;;;;;;;;;;;15.90;31.70;;;;;;8331343;28;19913;-49
2022/03/01 00:41:14;;;;;;;;;;;15.90;31.70;;;;;;8330865;28;19967;-49
2022/03/01 00:45:14;;;;;;;;;;;15.90;31.70;;;;;;8331329;28;19968;-53
2022/03/01 00:49:15;;;;;;;;;;;15.90;31.80;;;;;;8330970;28;20011;-49
2022/03/01 00:53:15;;;;;;;;;;;15.90;31.70;;;;;;8330438;28;19926;-50
2022/03/01 00:57:16;;;;;;;;;;;15.90;31.70;;;;;;8331098;28;19996;-48
2022/03/01 01:01:16;;;;;;;;;;;15.90;31.70;;;;;;8330838;28;19917;-50
2022/03/01 01:05:17;;;;;;;;;;;15.90;31.80;;;;;;8330546;28;19913;-52
2022/03/01 01:09:17;;;;;;;;;;;15.90;31.80;;;;;;8330692;28;19984;-52
2022/03/01 01:13:19;;;;;;;;;;;15.90;31.80;;;;;;8330588;28;19935;-49
2022/03/01 01:17:19;;;;;;;;;;;15.90;31.80;;;;;;8329817;28;19964;-47
2022/03/01 01:21:19;;;;;;;;;;;15.80;31.70;;;;;;8330284;28;20376;-48
2022/03/01 01:25:22;;;;;;;;;;;15.80;31.80;;;;;;8329804;28;19917;-49
2022/03/01 01:29:22;;;;;;;;;;;15.80;31.80;;;;;;8329864;28;19917;-48
2022/03/01 01:33:23;;;;;;;;;;;15.80;31.80;;;;;;8329983;28;20735;-49
2022/03/01 01:37:23;;;;;;;;;;;15.80;31.70;;;;;;8329699;28;19960;-49
2022/03/01 01:41:24;;;;;;;;;;;15.80;31.80;;;;;;8330000;28;19913;-50
2022/03/01 01:45:25;;;;;;;;;;;15.70;31.70;;;;;;8330275;28;19922;-49
2022/03/01 01:49:25;;;;;;;;;;;15.70;31.80;;;;;;8329492;28;19929;-47
2022/03/01 01:53:26;;;;;;;;;;;15.70;32.30;;;;;;8329663;28;20004;-48
2022/03/01 01:57:27;;;;;;;;;;;15.70;31.70;;;;;;8329863;28;20349;-47
2022/03/01 02:01:27;;;;;;;;;;;15.70;31.70;;;;;;8329353;28;19913;-48
2022/03/01 02:05:29;;;;;;;;;;;15.70;31.80;;;;;;8329815;28;19920;-47
2022/03/01 02:09:29;;;;;;;;;;;15.70;31.80;;;;;;8328506;28;19925;-52
2022/03/01 02:13:30;;;;;;;;;;;15.70;31.80;;;;;;8328930;28;20419;-47
2022/03/01 02:17:30;;;;;;;;;;;15.70;31.90;;;;;;8329526;28;19917;-47
2022/03/01 02:21:31;;;;;;;;;;;15.70;31.80;;;;;;8329571;28;19913;-50
2022/03/01 02:25:31;;;;;;;;;;;15.70;31.80;;;;;;8327822;28;19951;-47
2022/03/01 02:29:32;;;;;;;;;;;15.70;31.70;;;;;;8329131;28;19917;-52
2022/03/01 02:33:32;;;;;;;;;;;15.70;31.70;;;;;;8329091;28;19925;-48
2022/03/01 02:37:33;;;;;;;;;;;15.70;31.60;;;;;;8331292;28;19917;-47
2022/03/01 02:41:40;;;;;;;;;;;15.70;31.60;;;;;;8335121;28;19917;-47
2022/03/01 02:45:41;;;;;;;;;;;15.80;31.60;;;;;;8335476;28;19975;-49
2022/03/01 02:49:42;;;;;;;;;;;15.80;31.60;;;;;;8334236;28;19920;-47
2022/03/01 02:53:42;;;;;;;;;;;15.80;31.60;;;;;;8334993;28;19925;-48
2022/03/01 02:57:43;;;;;;;;;;;15.80;31.60;;;;;;8334847;28;19913;-49
2022/03/01 03:01:43;;;;;;;;;;;15.80;31.60;;;;;;8333934;28;19983;-47
2022/03/01 03:05:43;;;;;;;;;;;15.80;31.60;;;;;;8334449;28;20267;-48
2022/03/01 03:09:44;;;;;;;;;;;15.70;31.60;;;;;;8334374;28;20422;-48
2022/03/01 03:13:44;;;;;;;;;;;15.70;31.70;;;;;;8333579;28;19925;-50
2022/03/01 03:17:45;;;;;;;;;;;15.70;31.60;;;;;;8334207;28;19921;-49
2022/03/01 03:21:46;;;;;;;;;;;15.70;31.60;;;;;;8334054;28;19921;-48
2022/03/01 03:25:47;;;;;;;;;;;15.70;31.70;;;;;;8333731;28;20378;-49
2022/03/01 03:29:47;;;;;;;;;;;15.70;31.70;;;;;;8333600;28;19917;-48
2022/03/01 03:33:48;;;;;;;;;;;15.70;31.70;;;;;;8333303;28;20429;-49
2022/03/01 03:37:48;;;;;;;;;;;15.60;31.70;;;;;;8333041;28;19917;-48
2022/03/01 03:41:49;;;;;;;;;;;15.60;31.70;;;;;;8333438;28;19913;-49
2022/03/01 03:45:49;;;;;;;;;;;15.60;31.70;;;;;;8333083;28;19923;-47
2022/03/01 03:49:50;;;;;;;;;;;15.60;31.70;;;;;;8331750;28;19933;-48
2022/03/01 03:53:50;;;;;;;;;;;15.60;31.70;;;;;;8332974;28;19925;-48
2022/03/01 03:57:51;;;;;;;;;;;15.60;31.70;;;;;;8332933;28;19913;-48
2022/03/01 04:01:52;;;;;;;;;;;15.60;31.70;;;;;;8332852;28;19925;-51
2022/03/01 04:05:52;;;;;;;;;;;15.50;31.70;;;;;;8332451;28;19921;-50
2022/03/01 04:09:53;;;;;;;;;;;15.50;31.60;;;;;;8332532;28;19939;-49
2022/03/01 04:13:53;;;;;;;;;;;15.50;31.60;;;;;;8331798;28;20290;-47
2022/03/01 04:17:54;;;;;;;;;;;15.50;31.70;;;;;;8338507;28;20267;-48
2022/03/01 04:21:55;;;;;;;;;;;15.50;31.70;;;;;;8332396;28;19917;-48
2022/03/01 04:25:55;;;;;;;;;;;15.50;31.70;;;;;;8332126;28;20382;-50
2022/03/01 04:29:56;;;;;;;;;;;15.50;31.70;;;;;;8332086;28;20348;-49
2022/03/01 04:33:56;;;;;;;;;;;15.50;31.60;;;;;;8331814;28;20019;-50
2022/03/01 04:37:56;;;;;;;;;;;15.50;31.50;;;;;;8331147;28;19994;-49
2022/03/01 04:41:57;;;;;;;;;;;15.60;31.60;;;;;;8331612;28;19913;-48
2022/03/01 04:45:58;;;;;;;;;;;15.60;31.50;;;;;;8331368;28;19917;-50
2022/03/01 04:49:59;;;;;;;;;;;15.70;31.50;;;;;;8330680;28;19921;-49
2022/03/01 04:53:59;;;;;;;;;;;15.70;31.50;;;;;;8331155;28;20019;-47
2022/03/01 04:58:00;;;;;;;;;;;15.70;31.40;;;;;;8330990;28;19979;-50
2022/03/01 05:02:01;;;;;;;;;;;15.70;31.30;;;;;;8330574;28;19917;-49
2022/03/01 05:06:01;;;;;;;;;;;15.70;31.30;;;;;;8330726;28;19918;-50
2022/03/01 05:10:02;;;;;;;;;;;15.70;31.90;;;;;;8329836;28;19913;-49
2022/03/01 05:14:02;;;;;;;;;;;15.70;31.40;;;;;;8330046;28;20445;-51
2022/03/01 05:18:03;;;;;;;;;;;15.70;31.40;;;;;;8330666;28;20292;-48
2022/03/01 05:22:03;;;;;;;;;;;15.60;31.40;;;;;;8330646;28;20003;-48
2022/03/01 05:26:04;;;;;;;;;;;15.60;31.40;;;;;;8329867;28;20008;-52
2022/03/01 05:30:06;;;;;;;;;;;15.60;31.40;;;;;;8330576;28;19921;-47
2022/03/01 05:34:07;;;;;;;;;;;15.60;31.50;;;;;;8329993;28;19921;-47
2022/03/01 05:38:09;;;;;;;;;;;15.60;31.40;;;;;;8329763;28;20266;-49
2022/03/01 05:42:10;;;;;;;;;;;15.50;31.40;;;;;;8330595;28;20040;-49
2022/03/01 05:46:10;;;;;;;;;;;15.50;31.50;;;;;;8330121;28;20363;-48
2022/03/01 05:50:11;;;;;;;;;;;15.50;31.50;;;;;;8329370;28;20023;-50
2022/03/01 05:54:12;;;;;;;;;;;15.50;31.50;;;;;;8326774;28;19929;-49
2022/03/01 05:58:12;;;;;;;;;;;15.50;31.60;;;;;;8329909;28;19917;-47
2022/03/01 06:02:13;;;;;;;;;;;15.50;31.60;;;;;;8329448;28;19913;-50
2022/03/01 06:06:14;;;;;;;;;;;15.40;31.50;;;;;;8329551;28;19918;-50
2022/03/01 06:10:14;;;;;;;;;;;15.40;31.40;;;;;;8329808;28;19940;-49
2022/03/01 06:14:16;;;;;;;;;;;15.40;31.50;;;;;;8334399;28;20331;-48
2022/03/01 06:18:17;;;;;;;;;;;15.40;31.50;;;;;;8335985;28;19971;-49
2022/03/01 06:22:19;;;;;;;;;;;15.40;31.50;;;;;;8335144;28;22349;-49
2022/03/01 06:26:20;;;;;;;;;;;15.40;31.50;;;;;;8317004;28;19917;-51
2022/03/01 06:30:21;;;;;;;;;;;15.40;31.60;;;;;;8335342;28;20271;-48
2022/03/01 06:34:21;;;;;;;;;;;15.40;31.50;;;;;;8335323;28;19961;-48
2022/03/01 06:38:22;;;;;;;;;;;15.40;31.50;;;;;;8334825;28;19921;-48
2022/03/01 06:42:22;;;;;;;;;;;15.40;31.50;;;;;;8335270;28;19928;-48
2022/03/01 06:46:23;;;;;;;;;;;15.40;31.30;;;;;;8335038;28;19925;-47
2022/03/01 06:50:24;;;;;;;;;;;15.40;31.30;;;;;;8334268;28;20047;-48
2022/03/01 06:54:24;;;;;;;;;;;15.40;31.30;;;;;;8334992;28;19925;-51
2022/03/01 06:58:25;;;;;;;;;;;15.40;31.40;;;;;;8334236;28;19925;-50
2022/03/01 07:02:26;;;;;;;;;;;15.40;31.40;;;;;;8334659;28;20336;-47
2022/03/01 07:06:26;;;;;;;;;;;15.40;31.40;;;;;;8334505;28;19924;-52
2022/03/01 07:10:27;;;;;;;;;;;15.40;31.50;;;;;;8333620;28;20004;-49
2022/03/01 07:14:27;;;;;;;;;;;15.30;31.40;;;;;;8334112;28;19925;-50
2022/03/01 07:18:28;;;;;;;;;;;15.30;31.40;;;;;;8334150;28;19918;-48
2022/03/01 07:22:28;;;;;;;;;;;15.40;31.50;;;;;;8332810;28;19944;-49
2022/03/01 07:26:29;;;;;;;;;;;15.30;31.50;;;;;;8332262;28;19940;-52
2022/03/01 07:30:29;;;;;;;;;;;15.30;31.40;;;;;;8333868;28;20263;-52
2022/03/01 07:34:30;;;;;;;;;;;15.40;31.50;;;;;;8333102;28;19932;-49
2022/03/01 07:38:31;;;;;;;;;;;15.40;31.40;;;;;;8333501;28;19914;-49
2022/03/01 07:42:31;;;;;;;;;;;15.40;31.40;;;;;;8333755;28;19914;-50
2022/03/01 07:46:32;;;;;;;;;;;15.50;31.40;;;;;;8332709;28;19924;-50
2022/03/01 07:50:34;;;;;;;;;;;15.50;31.30;;;;;;8333213;28;19939;-49
2022/03/01 07:54:35;;;;;;;;;;;15.60;31.30;;;;;;8332363;28;20285;-48
2022/03/01 07:58:35;;;;;;;;;;;15.60;31.20;;;;;;8332652;28;19921;-49
2022/03/01 08:02:36;;;;;;;;;;;15.70;31.20;;;;;;8332529;28;19985;-50
2022/03/01 08:06:37;;;;;;;;;;;15.60;31.20;;;;;;8332456;28;19918;-51
2022/03/01 08:10:37;;;;;;;;;;;15.60;31.10;;;;;;8330959;28;19987;-51
2022/03/01 08:14:38;;;;;;;;;;;15.70;31.10;;;;;;8332038;28;20044;-52
2022/03/01 08:18:38;;;;;;;;;;;15.60;31.10;;;;;;8332358;28;19913;-50
2022/03/01 08:22:40;;;;;;;;;;;15.70;31.20;;;;;;8331596;28;19924;-49
2022/03/01 08:26:40;;;;;;;;;;;15.70;31.10;;;;;;8332081;28;19917;-49
2022/03/01 08:30:41;;;;;;;;;;;15.60;31.20;;;;;;8331691;28;19948;-51
2022/03/01 08:34:41;;;;;;;;;;;15.60;31.20;;;;;;8330598;28;19932;-49
2022/03/01 08:38:42;;;;;;;;;;;15.60;31.20;;;;;;8332020;28;19913;-53
2022/03/01 08:42:42;;;;;;;;;;;15.60;31.30;;;;;;8331648;28;19917;-53
2022/03/01 08:46:43;;;;;;;;;;;15.60;31.20;;;;;;8330868;28;19955;-52
2022/03/01 08:50:43;;;;;;;;;;;15.60;31.30;;;;;;8331075;28;19918;-51
2022/03/01 08:54:44;;;;;;;;;;;15.60;31.30;;;;;;8330924;28;19933;-52
2022/03/01 08:58:44;;;;;;;;;;;15.60;31.30;;;;;;8330710;28;19992;-54
2022/03/01 09:02:45;;;;;;;;;;;15.60;31.30;;;;;;8331047;28;19917;-51
2022/03/01 09:06:45;;;;;;;;;;;15.60;31.30;;;;;;8330758;28;19974;-51
2022/03/01 09:10:46;;;;;;;;;;;15.60;31.30;;;;;;8330155;28;19956;-50
2022/03/01 09:14:46;;;;;;;;;;;15.60;31.30;;;;;;8330359;28;19944;-53
2022/03/01 09:18:47;;;;;;;;;;;15.60;31.30;;;;;;8330684;28;19933;-49
2022/03/01 09:22:47;;;;;;;;;;;15.60;31.30;;;;;;8329654;28;19970;-49
2022/03/01 09:26:48;;;;;;;;;;;15.60;31.30;;;;;;8330110;28;19987;-50
2022/03/01 09:30:49;;;;;;;;;;;15.60;31.30;;;;;;8330174;28;20424;-49
2022/03/01 09:34:49;;;;;;;;;;;15.70;31.30;;;;;;8329679;28;19925;-50
2022/03/01 09:38:50;;;;;;;;;;;15.60;31.30;;;;;;8330204;28;19913;-48
2022/03/01 09:42:51;;;;;;;;;;;15.70;31.30;;;;;;8330195;28;19917;-49
2022/03/01 09:46:52;;;;;;;;;;;15.70;31.30;;;;;;8331130;28;19917;-50
2022/03/01 09:50:52;;;;;;;;;;;15.70;31.30;;;;;;8336615;28;19940;-54
2022/03/01 09:54:53;;;;;;;;;;;15.70;31.40;;;;;;8336409;28;19932;-49
2022/03/01 09:58:55;;;;;;;;;;;15.60;31.30;;;;;;8336340;28;19917;-49
2022/03/01 10:02:57;;;;;;;;;;;15.70;31.30;;;;;;8336159;28;19921;-51
2022/03/01 10:06:57;;;;;;;;;;;15.70;31.30;;;;;;8336287;28;20282;-51
2022/03/01 10:10:57;;;;;;;;;;;15.70;31.30;;;;;;8335772;28;19918;-52
2022/03/01 10:14:59;;;;;;;;;;;15.70;31.20;;;;;;8336131;28;19925;-51
2022/03/01 10:19:00;;;;;;;;;;;15.70;31.30;;;;;;8336187;28;19947;-53
2022/03/01 10:23:01;;;;;;;;;;;15.70;31.20;;;;;;8334227;28;20423;-49
2022/03/01 10:27:03;;;;;;;;;;;15.70;31.30;;;;;;8335973;28;19991;-50
2022/03/01 10:31:14;;;;;;;;;;;15.80;31.30;;;;;;8335600;28;19971;-51
2022/03/01 10:35:14;;;;;;;;;;;15.80;31.30;;;;;;8334909;28;20408;-52
2022/03/01 10:39:24;;;;;;;;;;;15.80;31.20;;;;;;8335649;28;19913;-50
2022/03/01 10:43:26;;;;;;;;;;;15.80;31.10;;;;;;8334826;28;20332;-53
2022/03/01 10:47:28;;;;;;;;;;;15.80;31.10;;;;;;8335422;28;19921;-53
2022/03/01 10:51:28;;;;;;;;;;;15.80;31.00;;;;;;8335033;28;19962;-50
2022/03/01 10:55:30;;;;;;;;;;;15.80;31.10;;;;;;8334303;28;19925;-53
2022/03/01 10:59:32;;;;;;;;;;;15.80;31.10;;;;;;8334895;28;20421;-49
2022/03/01 11:03:33;;;;;;;;;;;15.80;31.10;;;;;;8334469;28;19917;-51
2022/03/01 11:07:33;;;;;;;;;;;15.90;31.20;;;;;;8333317;28;19964;-51
2022/03/01 11:11:34;;;;;;;;;;;15.90;31.10;;;;;;8334136;28;19918;-49
2022/03/01 11:15:35;;;;;;;;;;;15.90;31.20;;;;;;8334231;28;19928;-50
2022/03/01 11:19:40;;;;;;;;;;;15.90;31.20;;;;;;8333822;28;19924;-50
2022/03/01 11:23:41;;;;;;;;;;;15.90;31.20;;;;;;8333643;28;19969;-48
2022/03/01 11:27:43;;;;;;;;;;;15.90;31.10;;;;;;8333643;28;20000;-50
2022/03/01 11:31:55;;;;;;;;;;;15.90;31.20;;;;;;8333086;28;20076;-50
2022/03/01 11:35:56;;;;;;;;;;;16.00;31.30;;;;;;8333437;28;20373;-51
2022/03/01 11:39:58;;;;;;;;;;;16.00;31.20;;;;;;8333800;28;19975;-51
2022/03/01 11:44:02;;;;;;;;;;;16.00;31.20;;;;;;8332975;28;19952;-49
2022/03/01 11:48:11;;;;;;;;;;;16.00;31.20;;;;;;8333215;28;19917;-50
2022/03/01 11:52:16;;;;;;;;;;;16.00;31.20;;;;;;8332836;28;20426;-50
2022/03/01 11:56:18;;;;;;;;;;;16.00;31.20;;;;;;8332421;28;19917;-51
2022/03/01 12:00:19;;;;;;;;;;;16.00;31.20;;;;;;8332972;28;19913;-50
2022/03/01 12:04:21;;;;;;;;;;;16.00;31.10;;;;;;8332862;28;19952;-50
2022/03/01 12:08:22;;;;;;;;;;;16.10;31.20;;;;;;8331718;28;20290;-51
2022/03/01 12:12:43;;;;;;;;;;;16.10;31.20;;;;;;8331364;28;19925;-52
2022/03/01 12:16:44;;;;;;;;;;;16.10;31.20;;;;;;8331424;28;20012;-49
2022/03/01 12:20:46;;;;;;;;;;;16.10;31.20;;;;;;8331400;28;19923;-51
2022/03/01 12:24:48;;;;;;;;;;;16.10;31.20;;;;;;8332157;28;20371;-53
2022/03/01 12:28:50;;;;;;;;;;;16.10;31.20;;;;;;8331391;28;20008;-48
2022/03/01 12:32:52;;;;;;;;;;;16.10;31.20;;;;;;8331746;28;20404;-51
2022/03/01 12:36:58;;;;;;;;;;;16.10;31.20;;;;;;8331536;28;20277;-50
2022/03/01 12:41:09;;;;;;;;;;;16.20;31.20;;;;;;8330966;28;19924;-50
2022/03/01 12:45:09;;;;;;;;;;;16.10;31.10;;;;;;8331834;28;19917;-50
2022/03/01 12:49:11;;;;;;;;;;;16.20;31.20;;;;;;8331084;28;19944;-49
2022/03/01 12:53:12;;;;;;;;;;;16.20;31.10;;;;;;8330665;28;19936;-49
2022/03/01 12:57:13;;;;;;;;;;;16.20;31.20;;;;;;8331000;28;19917;-52
2022/03/01 13:01:14;;;;;;;;;;;16.20;31.20;;;;;;8331035;28;20067;-51
2022/03/01 13:05:21;;;;;;;;;;;16.20;31.30;;;;;;8330646;28;19913;-50
2022/03/01 13:09:22;;;;;;;;;;;16.20;31.20;;;;;;8330838;28;19925;-48
2022/03/01 13:13:22;;;;;;;;;;;16.20;31.20;;;;;;8330586;28;20378;-49
2022/03/01 13:17:23;;;;;;;;;;;16.20;31.10;;;;;;8330008;28;19917;-48
2022/03/01 13:21:31;;;;;;;;;;;16.20;31.10;;;;;;8330361;28;20488;-50
2022/03/01 13:25:32;;;;;;;;;;;16.30;31.20;;;;;;8330217;28;19917;-50
2022/03/01 13:29:34;;;;;;;;;;;16.30;31.20;;;;;;8330264;28;19922;-49
2022/03/01 13:33:35;;;;;;;;;;;16.30;31.20;;;;;;8330309;28;20450;-51
2022/03/01 13:37:36;;;;;;;;;;;16.30;31.10;;;;;;8329719;28;19913;-49
2022/03/01 13:41:41;;;;;;;;;;;16.30;31.10;;;;;;8330254;28;20348;-50
2022/03/01 13:45:43;;;;;;;;;;;16.30;31.10;;;;;;8330083;28;19924;-49
2022/03/01 13:49:45;;;;;;;;;;;16.30;31.10;;;;;;8329323;28;19963;-49
2022/03/01 13:53:48;;;;;;;;;;;16.30;31.10;;;;;;8329708;28;19925;-51
2022/03/01 13:57:50;;;;;;;;;;;16.30;31.10;;;;;;8329788;28;20243;-53
2022/03/01 14:01:50;;;;;;;;;;;16.30;31.10;;;;;;8327851;28;19918;-53
2022/03/01 14:05:55;;;;;;;;;;;16.30;31.10;;;;;;8329758;28;19914;-52
2022/03/01 14:09:56;;;;;;;;;;;16.30;31.10;;;;;;8302952;28;19917;-53
2022/03/01 14:13:56;;;;;;;;;;;16.30;31.10;;;;;;8319566;28;19932;-50
2022/03/01 14:17:57;;;;;;;;;;;16.40;31.00;;;;;;8329337;28;19953;-48
2022/03/01 14:21:57;;;;;;;;;;;16.30;31.00;;;;;;8329366;28;19924;-50
2022/03/01 14:25:58;;;;;;;;;;;16.40;31.00;;;;;;8329028;28;19935;-48
2022/03/01 14:29:58;;;;;;;;;;;16.40;31.00;;;;;;8329503;28;19940;-52
2022/03/01 14:33:59;;;;;;;;;;;16.40;31.10;;;;;;8332326;28;19932;-49
2022/03/01 14:37:59;;;;;;;;;;;16.40;31.00;;;;;;8334853;28;19917;-49
2022/03/01 14:42:00;;;;;;;;;;;16.40;31.00;;;;;;8335057;28;20007;-50
2022/03/01 14:46:00;;;;;;;;;;;16.40;31.00;;;;;;8335122;28;19917;-52
2022/03/01 14:50:01;;;;;;;;;;;16.40;31.00;;;;;;8334687;28;19995;-51
2022/03/01 14:54:02;;;;;;;;;;;16.40;31.00;;;;;;8334955;28;19925;-48
2022/03/01 14:58:03;;;;;;;;;;;16.40;31.00;;;;;;8334901;28;20236;-52
2022/03/01 15:02:03;;;;;;;;;;;16.40;30.90;;;;;;8334102;28;19917;-51
2022/03/01 15:06:04;;;;;;;;;;;16.40;31.00;;;;;;8334599;28;19920;-52
2022/03/01 15:10:04;;;;;;;;;;;16.40;30.90;;;;;;8334349;28;19918;-49
2022/03/01 15:14:05;;;;;;;;;;;16.50;31.00;;;;;;8333589;28;19925;-50
2022/03/01 15:18:05;;;;;;;;;;;16.40;31.00;;;;;;8334088;28;20079;-48
2022/03/01 15:22:07;;;;;;;;;;;16.50;31.00;;;;;;8333992;28;20401;-53
2022/03/01 15:26:07;;;;;;;;;;;16.40;31.00;;;;;;8333727;28;19920;-49
2022/03/01 15:30:10;;;;;;;;;;;16.50;31.00;;;;;;8333629;28;20275;-49
2022/03/01 15:34:10;;;;;;;;;;;16.50;31.00;;;;;;8333727;28;19928;-50
2022/03/01 15:38:10;;;;;;;;;;;16.50;31.00;;;;;;8332879;28;19917;-49
2022/03/01 15:42:12;;;;;;;;;;;16.50;31.00;;;;;;8333160;28;19913;-49
2022/03/01 15:46:12;;;;;;;;;;;16.40;31.00;;;;;;8332445;28;19943;-51
2022/03/01 15:50:13;;;;;;;;;;;16.50;31.00;;;;;;8332756;28;19917;-49
2022/03/01 15:54:14;;;;;;;;;;;16.50;30.90;;;;;;8332871;28;20463;-49
2022/03/01 15:58:15;;;;;;;;;;;16.50;31.00;;;;;;8332842;28;19913;-49
2022/03/01 16:02:15;;;;;;;;;;;16.50;31.00;;;;;;8332269;28;19918;-48
2022/03/01 16:06:16;;;;;;;;;;;16.50;30.90;;;;;;8332851;28;19956;-51
2022/03/01 16:10:16;;;;;;;;;;;16.40;30.90;;;;;;8332413;28;19924;-49
2022/03/01 16:14:17;;;;;;;;;;;16.50;31.00;;;;;;8331655;28;20008;-50
2022/03/01 16:18:18;;;;;;;;;;;16.40;30.90;;;;;;8332451;28;19913;-52
2022/03/01 16:22:18;;;;;;;;;;;16.40;30.90;;;;;;8332331;28;20301;-49
2022/03/01 16:26:19;;;;;;;;;;;16.40;30.90;;;;;;8331710;28;20270;-51
2022/03/01 16:30:19;;;;;;;;;;;16.40;31.00;;;;;;8331656;28;19924;-50
2022/03/01 16:34:20;;;;;;;;;;;16.40;31.00;;;;;;8331402;28;19961;-49
2022/03/01 16:38:21;;;;;;;;;;;16.40;31.00;;;;;;8330971;28;20059;-47
2022/03/01 16:42:21;;;;;;;;;;;16.40;31.00;;;;;;8331292;28;20361;-50
2022/03/01 16:46:22;;;;;;;;;;;16.40;31.00;;;;;;8331517;28;19939;-51
2022/03/01 16:50:22;;;;;;;;;;;16.40;31.00;;;;;;8330787;28;19953;-52
2022/03/01 16:54:23;;;;;;;;;;;16.40;31.00;;;;;;8330962;28;20020;-53
2022/03/01 16:58:23;;;;;;;;;;;16.40;31.00;;;;;;8331009;28;19963;-49
2022/03/01 17:02:24;;;;;;;;;;;16.40;31.00;;;;;;8330533;28;19917;-49
2022/03/01 17:06:26;;;;;;;;;;;16.40;31.00;;;;;;8330207;28;20329;-52
2022/03/01 17:10:27;;;;;;;;;;;16.40;31.00;;;;;;8330075;28;19929;-52
2022/03/01 17:14:27;;;;;;;;;;;16.40;31.00;;;;;;8330751;28;19931;-53
2022/03/01 17:18:28;;;;;;;;;;;16.40;31.00;;;;;;8330678;28;19919;-55
2022/03/01 17:22:28;;;;;;;;;;;16.40;31.00;;;;;;8329967;28;19917;-50
2022/03/01 17:26:29;;;;;;;;;;;16.40;31.00;;;;;;8330317;28;19956;-51
2022/03/01 17:30:29;;;;;;;;;;;16.40;31.10;;;;;;8330169;28;19917;-53
2022/03/01 17:34:29;;;;;;;;;;;16.40;31.10;;;;;;8329686;28;19927;-53
2022/03/01 17:38:30;;;;;;;;;;;16.40;31.10;;;;;;8330046;28;19913;-52
2022/03/01 17:42:31;;;;;;;;;;;16.40;31.10;;;;;;8330141;28;19964;-50
2022/03/01 17:46:32;;;;;;;;;;;16.30;31.10;;;;;;8330076;28;19924;-53
2022/03/01 17:50:32;;;;;;;;;;;16.40;31.10;;;;;;8329796;28;19921;-49
2022/03/01 17:54:34;;;;;;;;;;;16.40;31.10;;;;;;8329652;28;19929;-52
2022/03/01 17:58:35;;;;;;;;;;;16.40;31.10;;;;;;8329226;28;19971;-52
2022/03/01 18:02:35;;;;;;;;;;;16.40;31.10;;;;;;8329836;28;19914;-50
2022/03/01 18:06:36;;;;;;;;;;;16.40;31.10;;;;;;8329581;28;20436;-49
2022/03/01 18:10:36;;;;;;;;;;;16.40;31.10;;;;;;8335419;28;20012;-51
2022/03/01 18:14:37;;;;;;;;;;;16.40;31.10;;;;;;8336391;28;19929;-49
2022/03/01 18:18:37;;;;;;;;;;;16.30;31.10;;;;;;8336127;28;19917;-51
2022/03/01 18:22:38;;;;;;;;;;;16.30;31.10;;;;;;8335465;28;19920;-50
2022/03/01 18:26:38;;;;;;;;;;;16.30;31.20;;;;;;8335602;28;19996;-50
2022/03/01 18:30:39;;;;;;;;;;;16.30;31.20;;;;;;8335426;28;20411;-48
2022/03/01 18:34:39;;;;;;;;;;;16.30;31.20;;;;;;8334878;28;19929;-49
2022/03/01 18:38:40;;;;;;;;;;;16.30;31.20;;;;;;8335205;28;19940;-52
2022/03/01 18:42:40;;;;;;;;;;;16.30;31.20;;;;;;8335605;28;20374;-49
2022/03/01 18:46:41;;;;;;;;;;;16.30;31.20;;;;;;8334390;28;19944;-51
2022/03/01 18:50:43;;;;;;;;;;;16.30;31.20;;;;;;8335024;28;19917;-49
2022/03/01 18:54:43;;;;;;;;;;;16.30;31.20;;;;;;8334576;28;19925;-51
2022/03/01 18:58:44;;;;;;;;;;;16.30;31.10;;;;;;8334037;28;19971;-51
2022/03/01 19:02:45;;;;;;;;;;;16.30;31.20;;;;;;8334720;28;20392;-49
2022/03/01 19:06:47;;;;;;;;;;;16.30;31.20;;;;;;8334503;28;20012;-52
2022/03/01 19:10:48;;;;;;;;;;;16.30;31.20;;;;;;8333806;28;19921;-52
2022/03/01 19:14:48;;;;;;;;;;;16.30;31.20;;;;;;8334199;28;19979;-49
2022/03/01 19:18:49;;;;;;;;;;;16.30;31.20;;;;;;8333829;28;19924;-52
2022/03/01 19:22:49;;;;;;;;;;;16.30;31.10;;;;;;8333582;28;20012;-54
2022/03/01 19:26:50;;;;;;;;;;;16.30;31.20;;;;;;8333977;28;20290;-53
2022/03/01 19:30:50;;;;;;;;;;;16.30;31.20;;;;;;8333651;28;19917;-49
2022/03/01 19:34:51;;;;;;;;;;;16.20;31.10;;;;;;8329826;28;19925;-49
2022/03/01 19:38:53;;;;;;;;;;;16.30;31.20;;;;;;8333166;28;19920;-50
2022/03/01 19:42:53;;;;;;;;;;;16.30;31.10;;;;;;8333406;28;19917;-55
2022/03/01 19:46:54;;;;;;;;;;;16.30;31.20;;;;;;8332714;28;19925;-53
2022/03/01 19:50:54;;;;;;;;;;;16.30;31.20;;;;;;8333114;28;19917;-50
2022/03/01 19:54:55;;;;;;;;;;;16.20;31.10;;;;;;8332897;28;19932;-53
2022/03/01 19:58:55;;;;;;;;;;;16.20;31.10;;;;;;8332463;28;19917;-49
2022/03/01 20:02:58;;;;;;;;;;;16.20;31.10;;;;;;8333381;28;19921;-50
2022/03/01 20:06:59;;;;;;;;;;;16.20;31.10;;;;;;8349632;28;19978;-52
2022/03/01 20:11:01;;;;;;;;;;;16.20;31.10;;;;;;8332041;28;20412;-51
2022/03/01 20:15:02;;;;;;;;;;;16.20;31.10;;;;;;8332320;28;19956;-50
2022/03/01 20:19:03;;;;;;;;;;;16.20;31.10;;;;;;8332299;28;19917;-54
2022/03/01 20:23:04;;;;;;;;;;;16.20;31.10;;;;;;8332013;28;20362;-49
2022/03/01 20:27:05;;;;;;;;;;;16.20;31.10;;;;;;8332163;28;20278;-52
2022/03/01 20:31:06;;;;;;;;;;;16.20;31.10;;;;;;8331280;28;19924;-51
2022/03/01 20:35:07;;;;;;;;;;;16.20;31.10;;;;;;8331307;28;20386;-49
2022/03/01 20:39:07;;;;;;;;;;;16.20;31.10;;;;;;8331872;28;19971;-48
2022/03/01 20:43:08;;;;;;;;;;;16.20;31.10;;;;;;8331748;28;19913;-51
2022/03/01 20:47:08;;;;;;;;;;;16.20;31.10;;;;;;8330867;28;19917;-51
2022/03/01 20:51:09;;;;;;;;;;;16.20;31.10;;;;;;8331157;28;19971;-51
2022/03/01 20:55:10;;;;;;;;;;;16.20;31.10;;;;;;8329857;28;20008;-51
2022/03/01 20:59:11;;;;;;;;;;;16.20;31.10;;;;;;8329403;28;19921;-50
2022/03/01 21:03:11;;;;;;;;;;;16.20;31.10;;;;;;8330079;28;20278;-52
2022/03/01 21:07:12;;;;;;;;;;;16.10;31.00;;;;;;8328550;28;19921;-52
2022/03/01 21:11:13;;;;;;;;;;;16.20;31.10;;;;;;8328957;28;19921;-51
2022/03/01 21:15:13;;;;;;;;;;;16.10;31.00;;;;;;8329277;28;19979;-53
2022/03/01 21:19:14;;;;;;;;;;;16.10;31.00;;;;;;8329265;28;19935;-53
2022/03/01 21:23:14;;;;;;;;;;;16.10;31.00;;;;;;8329124;28;20004;-52
2022/03/01 21:27:15;;;;;;;;;;;16.10;31.00;;;;;;8328979;28;20325;-50
2022/03/01 21:31:16;;;;;;;;;;;16.10;31.00;;;;;;8329062;28;19917;-52
2022/03/01 21:35:17;;;;;;;;;;;16.10;30.90;;;;;;8328439;28;19929;-51
2022/03/01 21:39:18;;;;;;;;;;;16.10;31.00;;;;;;8328887;28;19920;-54
2022/03/01 21:43:20;;;;;;;;;;;16.10;30.90;;;;;;8327901;28;20394;-52
2022/03/01 21:47:20;;;;;;;;;;;16.10;30.90;;;;;;8328365;28;19921;-54
2022/03/01 21:51:22;;;;;;;;;;;16.10;30.90;;;;;;8328898;28;20012;-52
2022/03/01 21:55:22;;;;;;;;;;;16.10;30.90;;;;;;8268276;28;1747095;-50
2022/03/01 21:59:23;;;;;;;;;;;16.10;30.90;;;;;;8329460;28;19988;-49
2022/03/01 22:03:23;;;;;;;;;;;16.10;31.00;;;;;;8329951;28;19917;-47
2022/03/01 22:07:24;;;;;;;;;;;16.10;31.00;;;;;;8329670;28;19921;-49
2022/03/01 22:11:24;;;;;;;;;;;16.10;31.00;;;;;;8305294;28;19964;-49
2022/03/01 22:15:25;;;;;;;;;;;16.10;30.90;;;;;;8329549;28;19925;-51
2022/03/01 22:19:25;;;;;;;;;;;16.10;31.00;;;;;;8329097;28;19920;-51
2022/03/01 22:23:26;;;;;;;;;;;16.00;30.90;;;;;;8329911;28;19918;-51
2022/03/01 22:27:27;;;;;;;;;;;16.00;31.00;;;;;;8329309;28;19921;-53
2022/03/01 22:31:27;;;;;;;;;;;16.00;31.00;;;;;;8329045;28;20389;-48
2022/03/01 22:35:28;;;;;;;;;;;16.00;31.00;;;;;;8329531;28;19921;-50
2022/03/01 22:39:28;;;;;;;;;;;16.00;31.60;;;;;;8329682;28;19917;-52
2022/03/01 22:43:29;;;;;;;;;;;16.00;31.10;;;;;;8328849;28;19917;-49
2022/03/01 22:47:29;;;;;;;;;;;16.00;31.10;;;;;;8329405;28;19963;-52
2022/03/01 22:51:30;;;;;;;;;;;16.00;31.00;;;;;;8328883;28;20015;-52
2022/03/01 22:55:31;;;;;;;;;;;16.00;31.00;;;;;;8332432;28;19932;-49
2022/03/01 22:59:31;;;;;;;;;;;16.10;31.10;;;;;;8335138;28;20289;-49
2022/03/01 23:03:32;;;;;;;;;;;16.10;31.00;;;;;;8334117;28;19917;-47
2022/03/01 23:07:33;;;;;;;;;;;16.10;31.00;;;;;;8334116;28;20014;-53
2022/03/01 23:11:33;;;;;;;;;;;16.10;31.00;;;;;;8327312;28;20331;-52
2022/03/01 23:15:34;;;;;;;;;;;16.10;31.00;;;;;;8334238;28;19925;-49
2022/03/01 23:19:34;;;;;;;;;;;16.10;30.90;;;;;;8333875;28;20446;-48